Terminal Aerodrome Forecast
Issued by NWS

Home | Current Version | Previous Version | Text Only | Print | Product List | Glossary Off
Versions: 1 2 3 4 5 6 7 8 9 10 11 12 13 14 15 16 17 18 19 20 21 22 23 24 25 26

821
FTUS43 KABR 180935 AAC
TAFPIR
TAF AMD
KPIR 180935Z 1810/1906 VRB06KT P6SM SCT020 OVC100
     FM181200 20009KT P6SM OVC025
     FM181900 32009KT P6SM OVC050
     FM190000 02010KT P6SM OVC050=

USA.gov is the U.S. government's official web portal to all federal, state and local government web resources and services.